< Cyclone 198507 1985 Season Cyclone 198509 >
Cyclone 198508 (ISOBEL)
General InformationDetailed Track InformationTrack Information on Google MapsList of All Images || ResourceGoogle EarthGE AnimationAtom FeedGeoJSON
Detalied Best Track Wind (Time Zone = UTC)
Year Month Day Hour Lat. Long. Wind (kt) Gust (kt) Direc. of Major Storm Axis Radius of Major Storm Axis (nm) Radius of Minor Storm Axis (nm) Direc. of Major Gale Axis Radius of Major Gale Axis (nm) Radius of Minor Gale Axis (nm) Image
1985 2 11 06 -7.5 100.6 23 -1 symmetric - - symmetric - - Image
1985 2 11 12 -7.8 100.8 23 -1 symmetric - - symmetric - - Image
1985 2 11 18 -8.2 101.1 23 -1 symmetric - - symmetric - - Image
1985 2 12 00 -8.6 101.5 25 -1 symmetric - - symmetric - - Image
1985 2 12 06 -9.0 101.7 27 -1 symmetric - - symmetric - - Image
1985 2 12 12 -9.5 101.9 31 -1 symmetric - - symmetric - - Image
1985 2 12 18 -10.1 102.2 35 -1 symmetric - - symmetric - - Image
1985 2 13 00 -10.7 102.4 41 -1 symmetric - - symmetric - - Image
1985 2 13 06 -11.4 102.5 45 -1 symmetric - - symmetric - - Image
1985 2 13 12 -11.9 102.0 51 -1 symmetric - - symmetric - - Image
1985 2 13 18 -12.3 101.1 53 -1 symmetric - - symmetric - - Image
1985 2 14 00 -12.7 100.6 60 -1 symmetric - - symmetric - - Image
1985 2 14 06 -13.3 100.4 66 -1 symmetric - - symmetric - - Image
1985 2 14 18 -12.9 101.4 60 -1 symmetric - - symmetric - - Image
1985 2 15 00 -12.6 102.0 60 -1 symmetric - - symmetric - - Image
1985 2 15 06 -12.5 102.7 60 -1 symmetric - - symmetric - - Image
1985 2 15 12 -12.7 103.3 60 -1 symmetric - - symmetric - - Image
1985 2 15 18 -13.1 104.0 62 -1 symmetric - - symmetric - - Image
1985 2 16 00 -13.7 104.6 64 -1 symmetric - - symmetric - - Image
1985 2 16 06 -14.3 105.2 70 -1 symmetric - - symmetric - - Image
1985 2 16 12 -14.7 105.5 74 -1 symmetric - - symmetric - - Image
1985 2 16 18 -15.1 105.4 78 -1 symmetric - - symmetric - - Image
1985 2 17 00 -15.5 105.0 84 -1 symmetric - - symmetric - - Image
1985 2 17 06 -16.0 104.5 82 -1 symmetric - - symmetric - - Image
1985 2 17 12 -16.6 103.9 80 -1 symmetric - - symmetric - - Image
1985 2 17 18 -17.0 103.3 78 -1 symmetric - - symmetric - - Image
1985 2 18 00 -17.3 102.7 78 -1 symmetric - - symmetric - - Image
1985 2 18 06 -17.6 102.1 78 -1 symmetric - - symmetric - - Image
1985 2 18 12 -18.0 101.6 78 -1 symmetric - - symmetric - - Image
1985 2 18 18 -18.4 101.2 74 -1 symmetric - - symmetric - - Image
1985 2 19 00 -18.9 101.0 66 -1 symmetric - - symmetric - - Image
1985 2 19 06 -19.5 100.5 66 -1 symmetric - - symmetric - - Image
1985 2 19 12 -19.9 100.1 66 -1 symmetric - - symmetric - - Image
1985 2 19 18 -20.3 99.5 60 -1 symmetric - - symmetric - - Image
1985 2 20 00 -20.8 98.7 54 -1 symmetric - - symmetric - - Image
1985 2 20 06 -21.6 97.7 53 -1 symmetric - - symmetric - - Image
1985 2 20 12 -22.4 96.8 47 -1 symmetric - - symmetric - - Image
1985 2 20 18 -23.3 96.1 47 -1 symmetric - - symmetric - - Image
1985 2 21 00 -24.5 95.5 41 -1 symmetric - - symmetric - - Image
1985 2 21 06 -25.9 95.0 39 -1 symmetric - - symmetric - - Image
1985 2 21 12 -27.6 94.7 33 -1 symmetric - - symmetric - - Image
1985 2 21 18 -29.5 94.4 31 -1 symmetric - - symmetric - - Image
1985 2 22 00 -31.4 94.2 25 -1 symmetric - - symmetric - - Image
< Cyclone 198507 1985 Season Cyclone 198509 >

Help